sensor_id;sensor_type;location;lat;lon;timestamp;P1;durP1;ratioP1;P2;durP2;ratioP2
53401;SDS011;39295;45.534;20.034;2023-03-01T00:00:16;40.53;;;26.40;;
53401;SDS011;39295;45.534;20.034;2023-03-01T00:02:42;42.58;;;26.55;;
53401;SDS011;39295;45.534;20.034;2023-03-01T00:05:08;41.25;;;26.67;;
53401;SDS011;39295;45.534;20.034;2023-03-01T00:07:34;38.30;;;25.80;;
53401;SDS011;39295;45.534;20.034;2023-03-01T00:10:00;42.22;;;26.90;;
53401;SDS011;39295;45.534;20.034;2023-03-01T00:12:26;43.00;;;26.70;;
53401;SDS011;39295;45.534;20.034;2023-03-01T00:14:52;38.58;;;24.83;;
53401;SDS011;39295;45.534;20.034;2023-03-01T00:17:18;40.70;;;26.33;;
53401;SDS011;39295;45.534;20.034;2023-03-01T00:19:44;40.28;;;25.73;;
53401;SDS011;39295;45.534;20.034;2023-03-01T00:22:10;41.45;;;26.08;;
53401;SDS011;39295;45.534;20.034;2023-03-01T00:24:37;39.60;;;25.85;;
53401;SDS011;39295;45.534;20.034;2023-03-01T00:27:03;37.47;;;25.13;;
53401;SDS011;39295;45.534;20.034;2023-03-01T00:29:29;39.15;;;26.02;;
53401;SDS011;39295;45.534;20.034;2023-03-01T00:31:55;39.38;;;26.05;;
53401;SDS011;39295;45.534;20.034;2023-03-01T00:34:21;41.10;;;26.55;;
53401;SDS011;39295;45.534;20.034;2023-03-01T00:36:47;42.67;;;26.88;;
53401;SDS011;39295;45.534;20.034;2023-03-01T00:39:14;39.05;;;25.70;;
53401;SDS011;39295;45.534;20.034;2023-03-01T00:41:40;40.92;;;25.88;;
53401;SDS011;39295;45.534;20.034;2023-03-01T00:44:07;43.95;;;27.88;;
53401;SDS011;39295;45.534;20.034;2023-03-01T00:46:33;38.88;;;26.27;;
53401;SDS011;39295;45.534;20.034;2023-03-01T00:48:59;38.38;;;26.75;;
53401;SDS011;39295;45.534;20.034;2023-03-01T00:51:27;39.20;;;26.88;;
53401;SDS011;39295;45.534;20.034;2023-03-01T00:53:54;44.63;;;28.27;;
53401;SDS011;39295;45.534;20.034;2023-03-01T00:56:22;44.75;;;27.30;;
53401;SDS011;39295;45.534;20.034;2023-03-01T01:01:33;42.60;;;27.05;;
53401;SDS011;39295;45.534;20.034;2023-03-01T01:06:26;42.83;;;27.58;;
53401;SDS011;39295;45.534;20.034;2023-03-01T01:08:53;45.33;;;28.05;;
53401;SDS011;39295;45.534;20.034;2023-03-01T01:11:20;46.15;;;28.52;;
53401;SDS011;39295;45.534;20.034;2023-03-01T01:13:46;43.90;;;28.80;;
53401;SDS011;39295;45.534;20.034;2023-03-01T01:16:13;45.80;;;29.45;;
53401;SDS011;39295;45.534;20.034;2023-03-01T01:18:39;42.42;;;28.40;;
53401;SDS011;39295;45.534;20.034;2023-03-01T01:21:07;45.88;;;28.98;;
53401;SDS011;39295;45.534;20.034;2023-03-01T01:23:33;48.58;;;29.85;;
53401;SDS011;39295;45.534;20.034;2023-03-01T01:26:04;43.17;;;27.60;;
53401;SDS011;39295;45.534;20.034;2023-03-01T01:28:30;45.63;;;27.13;;
53401;SDS011;39295;45.534;20.034;2023-03-01T01:30:56;43.40;;;27.70;;
53401;SDS011;39295;45.534;20.034;2023-03-01T01:33:22;43.35;;;27.85;;
53401;SDS011;39295;45.534;20.034;2023-03-01T01:35:48;47.35;;;28.55;;
53401;SDS011;39295;45.534;20.034;2023-03-01T01:38:14;44.10;;;28.63;;
53401;SDS011;39295;45.534;20.034;2023-03-01T01:40:44;45.90;;;29.15;;
53401;SDS011;39295;45.534;20.034;2023-03-01T01:46:16;47.42;;;28.98;;
53401;SDS011;39295;45.534;20.034;2023-03-01T01:48:49;46.08;;;29.13;;
53401;SDS011;39295;45.534;20.034;2023-03-01T01:51:18;46.13;;;29.40;;
53401;SDS011;39295;45.534;20.034;2023-03-01T01:53:46;44.30;;;28.67;;
53401;SDS011;39295;45.534;20.034;2023-03-01T01:56:14;45.90;;;29.48;;
53401;SDS011;39295;45.534;20.034;2023-03-01T01:58:41;46.15;;;28.77;;
53401;SDS011;39295;45.534;20.034;2023-03-01T02:01:08;43.83;;;29.13;;
53401;SDS011;39295;45.534;20.034;2023-03-01T02:03:35;48.42;;;29.15;;
53401;SDS011;39295;45.534;20.034;2023-03-01T02:06:11;47.97;;;29.52;;
53401;SDS011;39295;45.534;20.034;2023-03-01T02:08:38;46.20;;;28.88;;
53401;SDS011;39295;45.534;20.034;2023-03-01T02:11:06;50.13;;;28.92;;
53401;SDS011;39295;45.534;20.034;2023-03-01T02:13:33;47.05;;;29.40;;
53401;SDS011;39295;45.534;20.034;2023-03-01T02:16:02;46.63;;;28.45;;
53401;SDS011;39295;45.534;20.034;2023-03-01T02:18:28;48.72;;;28.95;;
53401;SDS011;39295;45.534;20.034;2023-03-01T02:23:38;50.08;;;28.88;;
53401;SDS011;39295;45.534;20.034;2023-03-01T02:26:15;45.38;;;28.95;;
53401;SDS011;39295;45.534;20.034;2023-03-01T02:31:47;44.92;;;28.30;;
53401;SDS011;39295;45.534;20.034;2023-03-01T02:34:15;48.67;;;30.00;;
53401;SDS011;39295;45.534;20.034;2023-03-01T02:39:12;49.75;;;30.95;;
53401;SDS011;39295;45.534;20.034;2023-03-01T02:41:44;49.00;;;30.83;;
53401;SDS011;39295;45.534;20.034;2023-03-01T02:55:38;48.40;;;29.58;;
53401;SDS011;39295;45.534;20.034;2023-03-01T02:58:04;44.47;;;27.88;;
53401;SDS011;39295;45.534;20.034;2023-03-01T03:00:33;46.40;;;28.25;;
53401;SDS011;39295;45.534;20.034;2023-03-01T03:03:04;45.85;;;27.98;;
53401;SDS011;39295;45.534;20.034;2023-03-01T03:05:31;43.92;;;27.67;;
53401;SDS011;39295;45.534;20.034;2023-03-01T03:07:57;43.60;;;27.60;;
53401;SDS011;39295;45.534;20.034;2023-03-01T03:10:25;46.10;;;26.90;;
53401;SDS011;39295;45.534;20.034;2023-03-01T03:12:59;45.00;;;27.52;;
53401;SDS011;39295;45.534;20.034;2023-03-01T03:15:26;41.20;;;26.42;;
53401;SDS011;39295;45.534;20.034;2023-03-01T03:17:52;40.65;;;26.50;;
53401;SDS011;39295;45.534;20.034;2023-03-01T03:20:19;41.90;;;26.17;;
53401;SDS011;39295;45.534;20.034;2023-03-01T03:22:47;38.72;;;24.88;;
53401;SDS011;39295;45.534;20.034;2023-03-01T03:25:13;40.22;;;24.73;;
53401;SDS011;39295;45.534;20.034;2023-03-01T03:27:40;40.25;;;25.33;;
53401;SDS011;39295;45.534;20.034;2023-03-01T03:33:24;42.55;;;26.10;;
53401;SDS011;39295;45.534;20.034;2023-03-01T03:35:50;40.38;;;25.45;;
53401;SDS011;39295;45.534;20.034;2023-03-01T03:38:18;40.78;;;26.10;;
53401;SDS011;39295;45.534;20.034;2023-03-01T03:40:50;38.15;;;24.85;;
53401;SDS011;39295;45.534;20.034;2023-03-01T03:43:18;38.03;;;24.65;;
53401;SDS011;39295;45.534;20.034;2023-03-01T03:45:45;42.42;;;24.63;;
53401;SDS011;39295;45.534;20.034;2023-03-01T03:48:11;39.50;;;24.80;;
53401;SDS011;39295;45.534;20.034;2023-03-01T03:50:38;41.70;;;24.90;;
53401;SDS011;39295;45.534;20.034;2023-03-01T03:53:05;36.95;;;24.17;;
53401;SDS011;39295;45.534;20.034;2023-03-01T03:55:32;40.15;;;25.40;;
53401;SDS011;39295;45.534;20.034;2023-03-01T03:57:59;39.67;;;25.17;;
53401;SDS011;39295;45.534;20.034;2023-03-01T04:00:32;41.30;;;25.48;;
53401;SDS011;39295;45.534;20.034;2023-03-01T04:02:58;41.60;;;26.27;;
53401;SDS011;39295;45.534;20.034;2023-03-01T04:05:25;39.97;;;25.13;;
53401;SDS011;39295;45.534;20.034;2023-03-01T04:07:52;37.88;;;25.63;;
53401;SDS011;39295;45.534;20.034;2023-03-01T04:10:26;40.30;;;25.23;;
53401;SDS011;39295;45.534;20.034;2023-03-01T04:12:52;54.35;;;30.85;;
53401;SDS011;39295;45.534;20.034;2023-03-01T04:15:39;62.85;;;34.60;;
53401;SDS011;39295;45.534;20.034;2023-03-01T04:18:05;58.13;;;33.33;;
53401;SDS011;39295;45.534;20.034;2023-03-01T04:20:33;63.47;;;34.13;;
53401;SDS011;39295;45.534;20.034;2023-03-01T04:23:18;50.67;;;29.92;;
53401;SDS011;39295;45.534;20.034;2023-03-01T04:25:49;52.25;;;31.40;;
53401;SDS011;39295;45.534;20.034;2023-03-01T04:28:24;87.30;;;36.28;;
53401;SDS011;39295;45.534;20.034;2023-03-01T04:33:50;117.07;;;42.65;;
53401;SDS011;39295;45.534;20.034;2023-03-01T04:36:16;106.38;;;40.47;;
53401;SDS011;39295;45.534;20.034;2023-03-01T04:38:43;72.80;;;33.45;;
53401;SDS011;39295;45.534;20.034;2023-03-01T04:41:12;62.72;;;30.90;;
53401;SDS011;39295;45.534;20.034;2023-03-01T04:43:38;53.03;;;29.90;;
53401;SDS011;39295;45.534;20.034;2023-03-01T04:46:06;44.70;;;28.10;;
53401;SDS011;39295;45.534;20.034;2023-03-01T04:48:34;47.08;;;28.48;;
53401;SDS011;39295;45.534;20.034;2023-03-01T04:51:00;62.17;;;34.30;;
53401;SDS011;39295;45.534;20.034;2023-03-01T04:53:27;55.72;;;33.30;;
53401;SDS011;39295;45.534;20.034;2023-03-01T04:55:54;49.08;;;30.40;;
53401;SDS011;39295;45.534;20.034;2023-03-01T04:58:21;52.45;;;31.38;;
53401;SDS011;39295;45.534;20.034;2023-03-01T05:03:51;61.38;;;35.78;;
53401;SDS011;39295;45.534;20.034;2023-03-01T05:06:18;46.40;;;27.75;;
53401;SDS011;39295;45.534;20.034;2023-03-01T05:08:44;54.95;;;32.08;;
53401;SDS011;39295;45.534;20.034;2023-03-01T05:11:10;64.57;;;32.53;;
53401;SDS011;39295;45.534;20.034;2023-03-01T05:13:37;69.78;;;35.08;;
53401;SDS011;39295;45.534;20.034;2023-03-01T05:16:04;70.70;;;36.90;;
53401;SDS011;39295;45.534;20.034;2023-03-01T05:18:31;79.93;;;41.35;;
53401;SDS011;39295;45.534;20.034;2023-03-01T05:21:02;80.78;;;40.53;;
53401;SDS011;39295;45.534;20.034;2023-03-01T05:23:29;73.50;;;37.60;;
53401;SDS011;39295;45.534;20.034;2023-03-01T05:25:57;77.78;;;40.55;;
53401;SDS011;39295;45.534;20.034;2023-03-01T05:28:24;69.28;;;38.03;;
53401;SDS011;39295;45.534;20.034;2023-03-01T05:30:51;73.97;;;37.00;;
53401;SDS011;39295;45.534;20.034;2023-03-01T05:33:17;88.07;;;41.38;;
53401;SDS011;39295;45.534;20.034;2023-03-01T05:35:44;101.18;;;44.85;;
53401;SDS011;39295;45.534;20.034;2023-03-01T05:38:11;89.93;;;43.28;;
53401;SDS011;39295;45.534;20.034;2023-03-01T05:40:41;100.13;;;45.72;;
53401;SDS011;39295;45.534;20.034;2023-03-01T05:43:08;98.30;;;44.90;;
53401;SDS011;39295;45.534;20.034;2023-03-01T05:45:35;92.88;;;44.13;;
53401;SDS011;39295;45.534;20.034;2023-03-01T05:48:02;82.43;;;39.13;;
53401;SDS011;39295;45.534;20.034;2023-03-01T05:50:29;73.85;;;36.58;;
53401;SDS011;39295;45.534;20.034;2023-03-01T05:52:59;76.75;;;36.92;;
53401;SDS011;39295;45.534;20.034;2023-03-01T05:55:26;64.18;;;35.15;;
53401;SDS011;39295;45.534;20.034;2023-03-01T05:57:52;60.78;;;30.67;;
53401;SDS011;39295;45.534;20.034;2023-03-01T06:03:03;62.20;;;31.25;;
53401;SDS011;39295;45.534;20.034;2023-03-01T06:05:29;61.75;;;30.98;;
53401;SDS011;39295;45.534;20.034;2023-03-01T06:07:58;51.33;;;27.77;;
53401;SDS011;39295;45.534;20.034;2023-03-01T06:10:24;50.88;;;27.08;;
53401;SDS011;39295;45.534;20.034;2023-03-01T06:12:50;64.30;;;30.23;;
53401;SDS011;39295;45.534;20.034;2023-03-01T06:15:16;78.00;;;35.63;;
53401;SDS011;39295;45.534;20.034;2023-03-01T06:17:44;68.55;;;32.40;;
53401;SDS011;39295;45.534;20.034;2023-03-01T06:20:12;60.03;;;33.88;;
53401;SDS011;39295;45.534;20.034;2023-03-01T06:22:39;50.33;;;29.73;;
53401;SDS011;39295;45.534;20.034;2023-03-01T06:25:06;44.38;;;26.65;;
53401;SDS011;39295;45.534;20.034;2023-03-01T06:27:32;50.40;;;28.17;;
53401;SDS011;39295;45.534;20.034;2023-03-01T06:29:58;49.03;;;29.27;;
53401;SDS011;39295;45.534;20.034;2023-03-01T06:32:24;72.75;;;33.28;;
53401;SDS011;39295;45.534;20.034;2023-03-01T06:34:50;75.80;;;32.47;;
53401;SDS011;39295;45.534;20.034;2023-03-01T06:37:16;54.97;;;28.17;;
53401;SDS011;39295;45.534;20.034;2023-03-01T06:39:42;59.55;;;29.80;;
53401;SDS011;39295;45.534;20.034;2023-03-01T06:42:09;78.68;;;33.83;;
53401;SDS011;39295;45.534;20.034;2023-03-01T06:44:35;91.38;;;37.47;;
53401;SDS011;39295;45.534;20.034;2023-03-01T06:47:01;60.85;;;30.58;;
53401;SDS011;39295;45.534;20.034;2023-03-01T06:49:28;44.83;;;26.08;;
53401;SDS011;39295;45.534;20.034;2023-03-01T06:51:55;52.78;;;28.45;;
53401;SDS011;39295;45.534;20.034;2023-03-01T06:54:21;56.72;;;30.52;;
53401;SDS011;39295;45.534;20.034;2023-03-01T06:56:47;44.45;;;26.33;;
53401;SDS011;39295;45.534;20.034;2023-03-01T06:59:14;38.70;;;25.55;;
53401;SDS011;39295;45.534;20.034;2023-03-01T07:01:40;52.72;;;26.55;;
53401;SDS011;39295;45.534;20.034;2023-03-01T07:04:06;48.15;;;28.67;;
53401;SDS011;39295;45.534;20.034;2023-03-01T07:06:32;47.25;;;28.48;;
53401;SDS011;39295;45.534;20.034;2023-03-01T07:08:58;46.20;;;28.48;;
53401;SDS011;39295;45.534;20.034;2023-03-01T07:11:24;44.95;;;27.88;;
53401;SDS011;39295;45.534;20.034;2023-03-01T07:13:51;56.40;;;26.30;;
53401;SDS011;39295;45.534;20.034;2023-03-01T07:16:17;39.83;;;25.40;;
53401;SDS011;39295;45.534;20.034;2023-03-01T07:18:45;41.53;;;27.50;;
53401;SDS011;39295;45.534;20.034;2023-03-01T07:21:12;45.35;;;27.10;;
53401;SDS011;39295;45.534;20.034;2023-03-01T07:23:38;39.78;;;26.27;;
53401;SDS011;39295;45.534;20.034;2023-03-01T07:26:04;44.53;;;27.33;;
53401;SDS011;39295;45.534;20.034;2023-03-01T07:28:30;41.15;;;26.08;;
53401;SDS011;39295;45.534;20.034;2023-03-01T07:31:06;42.05;;;26.80;;
53401;SDS011;39295;45.534;20.034;2023-03-01T07:33:32;45.28;;;27.63;;
53401;SDS011;39295;45.534;20.034;2023-03-01T07:35:59;39.88;;;27.60;;
53401;SDS011;39295;45.534;20.034;2023-03-01T07:38:26;43.70;;;27.17;;
53401;SDS011;39295;45.534;20.034;2023-03-01T07:40:52;45.03;;;27.92;;
53401;SDS011;39295;45.534;20.034;2023-03-01T07:43:19;44.72;;;28.23;;
53401;SDS011;39295;45.534;20.034;2023-03-01T07:45:45;72.63;;;35.17;;
53401;SDS011;39295;45.534;20.034;2023-03-01T07:48:11;99.60;;;42.13;;
53401;SDS011;39295;45.534;20.034;2023-03-01T07:50:37;65.18;;;33.70;;
53401;SDS011;39295;45.534;20.034;2023-03-01T07:53:03;62.70;;;35.20;;
53401;SDS011;39295;45.534;20.034;2023-03-01T07:55:30;55.33;;;33.70;;
53401;SDS011;39295;45.534;20.034;2023-03-01T07:57:56;51.03;;;32.17;;
53401;SDS011;39295;45.534;20.034;2023-03-01T08:00:22;51.28;;;32.38;;
53401;SDS011;39295;45.534;20.034;2023-03-01T08:02:48;53.95;;;33.63;;
53401;SDS011;39295;45.534;20.034;2023-03-01T08:05:14;50.83;;;32.03;;
53401;SDS011;39295;45.534;20.034;2023-03-01T08:07:40;55.83;;;35.60;;
53401;SDS011;39295;45.534;20.034;2023-03-01T08:10:06;52.45;;;34.13;;
53401;SDS011;39295;45.534;20.034;2023-03-01T08:12:32;59.17;;;37.42;;
53401;SDS011;39295;45.534;20.034;2023-03-01T08:14:58;51.75;;;33.38;;
53401;SDS011;39295;45.534;20.034;2023-03-01T08:17:24;46.97;;;30.42;;
53401;SDS011;39295;45.534;20.034;2023-03-01T08:19:50;46.42;;;28.95;;
53401;SDS011;39295;45.534;20.034;2023-03-01T08:22:17;43.85;;;28.92;;
53401;SDS011;39295;45.534;20.034;2023-03-01T08:24:43;43.63;;;29.67;;
53401;SDS011;39295;45.534;20.034;2023-03-01T08:27:09;41.63;;;29.10;;
53401;SDS011;39295;45.534;20.034;2023-03-01T08:29:37;53.30;;;31.17;;
53401;SDS011;39295;45.534;20.034;2023-03-01T08:32:03;45.17;;;27.45;;
53401;SDS011;39295;45.534;20.034;2023-03-01T08:34:29;39.75;;;27.58;;
53401;SDS011;39295;45.534;20.034;2023-03-01T08:36:56;42.45;;;28.90;;
53401;SDS011;39295;45.534;20.034;2023-03-01T08:39:23;41.50;;;27.27;;
53401;SDS011;39295;45.534;20.034;2023-03-01T08:41:49;73.95;;;40.60;;
53401;SDS011;39295;45.534;20.034;2023-03-01T08:44:15;91.85;;;57.83;;
53401;SDS011;39295;45.534;20.034;2023-03-01T08:46:42;55.63;;;38.55;;
53401;SDS011;39295;45.534;20.034;2023-03-01T08:49:10;48.90;;;31.42;;
53401;SDS011;39295;45.534;20.034;2023-03-01T08:51:36;44.53;;;30.05;;
53401;SDS011;39295;45.534;20.034;2023-03-01T08:54:03;45.83;;;30.98;;
53401;SDS011;39295;45.534;20.034;2023-03-01T08:56:30;49.33;;;30.40;;
53401;SDS011;39295;45.534;20.034;2023-03-01T08:58:56;69.28;;;36.60;;
53401;SDS011;39295;45.534;20.034;2023-03-01T09:01:22;53.22;;;33.13;;
53401;SDS011;39295;45.534;20.034;2023-03-01T09:03:48;43.15;;;28.77;;
53401;SDS011;39295;45.534;20.034;2023-03-01T09:06:14;49.78;;;29.45;;
53401;SDS011;39295;45.534;20.034;2023-03-01T09:08:41;44.67;;;29.30;;
53401;SDS011;39295;45.534;20.034;2023-03-01T09:11:09;56.97;;;32.20;;
53401;SDS011;39295;45.534;20.034;2023-03-01T09:13:35;57.78;;;32.97;;
53401;SDS011;39295;45.534;20.034;2023-03-01T09:16:02;52.10;;;31.05;;
53401;SDS011;39295;45.534;20.034;2023-03-01T09:18:29;45.17;;;29.42;;
53401;SDS011;39295;45.534;20.034;2023-03-01T09:21:05;45.17;;;30.65;;
53401;SDS011;39295;45.534;20.034;2023-03-01T09:23:33;43.00;;;28.85;;
53401;SDS011;39295;45.534;20.034;2023-03-01T09:26:01;51.75;;;31.65;;
53401;SDS011;39295;45.534;20.034;2023-03-01T09:28:27;52.50;;;35.45;;
53401;SDS011;39295;45.534;20.034;2023-03-01T09:30:53;99.50;;;49.38;;
53401;SDS011;39295;45.534;20.034;2023-03-01T09:33:19;55.75;;;35.67;;
53401;SDS011;39295;45.534;20.034;2023-03-01T09:35:45;67.47;;;37.90;;
53401;SDS011;39295;45.534;20.034;2023-03-01T09:38:13;69.38;;;43.38;;
53401;SDS011;39295;45.534;20.034;2023-03-01T09:40:43;63.17;;;38.90;;
53401;SDS011;39295;45.534;20.034;2023-03-01T09:43:16;49.05;;;31.77;;
53401;SDS011;39295;45.534;20.034;2023-03-01T09:45:45;59.78;;;38.33;;
53401;SDS011;39295;45.534;20.034;2023-03-01T09:48:18;56.60;;;35.65;;
53401;SDS011;39295;45.534;20.034;2023-03-01T09:50:47;46.03;;;30.38;;
53401;SDS011;39295;45.534;20.034;2023-03-01T09:53:15;50.50;;;30.02;;
53401;SDS011;39295;45.534;20.034;2023-03-01T10:00:49;53.47;;;33.60;;
53401;SDS011;39295;45.534;20.034;2023-03-01T10:03:16;46.88;;;31.13;;
53401;SDS011;39295;45.534;20.034;2023-03-01T10:10:56;44.08;;;30.30;;
53401;SDS011;39295;45.534;20.034;2023-03-01T10:16:11;45.63;;;32.00;;
53401;SDS011;39295;45.534;20.034;2023-03-01T10:18:39;49.20;;;32.38;;
53401;SDS011;39295;45.534;20.034;2023-03-01T10:21:12;47.97;;;32.05;;
53401;SDS011;39295;45.534;20.034;2023-03-01T10:23:40;43.63;;;29.15;;
53401;SDS011;39295;45.534;20.034;2023-03-01T10:26:22;53.80;;;34.05;;
53401;SDS011;39295;45.534;20.034;2023-03-01T10:31:22;43.20;;;30.25;;
53401;SDS011;39295;45.534;20.034;2023-03-01T10:33:53;41.65;;;28.35;;
53401;SDS011;39295;45.534;20.034;2023-03-01T10:36:20;43.50;;;29.27;;
53401;SDS011;39295;45.534;20.034;2023-03-01T10:38:48;40.50;;;27.92;;
53401;SDS011;39295;45.534;20.034;2023-03-01T10:41:14;40.95;;;27.75;;
53401;SDS011;39295;45.534;20.034;2023-03-01T10:43:43;39.55;;;26.88;;
53401;SDS011;39295;45.534;20.034;2023-03-01T10:51:35;41.92;;;29.13;;
53401;SDS011;39295;45.534;20.034;2023-03-01T10:54:01;41.50;;;28.50;;
53401;SDS011;39295;45.534;20.034;2023-03-01T10:56:28;45.50;;;31.88;;
53401;SDS011;39295;45.534;20.034;2023-03-01T10:58:59;40.70;;;28.67;;
53401;SDS011;39295;45.534;20.034;2023-03-01T11:01:27;42.85;;;29.17;;
53401;SDS011;39295;45.534;20.034;2023-03-01T11:06:35;51.13;;;34.20;;
53401;SDS011;39295;45.534;20.034;2023-03-01T11:09:21;40.83;;;28.13;;
53401;SDS011;39295;45.534;20.034;2023-03-01T11:11:54;40.40;;;27.02;;
53401;SDS011;39295;45.534;20.034;2023-03-01T11:14:32;39.60;;;27.00;;
53401;SDS011;39295;45.534;20.034;2023-03-01T11:19:29;35.30;;;24.98;;
53401;SDS011;39295;45.534;20.034;2023-03-01T11:21:58;36.33;;;24.90;;
53401;SDS011;39295;45.534;20.034;2023-03-01T11:24:34;37.13;;;25.27;;
53401;SDS011;39295;45.534;20.034;2023-03-01T11:27:02;39.80;;;25.98;;
53401;SDS011;39295;45.534;20.034;2023-03-01T11:29:35;35.42;;;24.25;;
53401;SDS011;39295;45.534;20.034;2023-03-01T11:32:04;37.17;;;25.05;;
53401;SDS011;39295;45.534;20.034;2023-03-01T11:37:28;40.97;;;27.15;;
53401;SDS011;39295;45.534;20.034;2023-03-01T11:39:58;42.95;;;28.73;;
53401;SDS011;39295;45.534;20.034;2023-03-01T11:42:30;37.78;;;25.90;;
53401;SDS011;39295;45.534;20.034;2023-03-01T11:45:02;43.25;;;26.58;;
53401;SDS011;39295;45.534;20.034;2023-03-01T11:52:55;33.22;;;24.08;;
53401;SDS011;39295;45.534;20.034;2023-03-01T12:16:20;41.42;;;25.10;;
53401;SDS011;39295;45.534;20.034;2023-03-01T12:29:31;47.78;;;29.27;;
53401;SDS011;39295;45.534;20.034;2023-03-01T12:49:12;34.60;;;24.63;;
53401;SDS011;39295;45.534;20.034;2023-03-01T12:51:39;35.08;;;26.02;;
53401;SDS011;39295;45.534;20.034;2023-03-01T12:54:19;37.40;;;26.17;;
53401;SDS011;39295;45.534;20.034;2023-03-01T12:56:46;40.90;;;26.23;;
53401;SDS011;39295;45.534;20.034;2023-03-01T13:04:35;31.15;;;22.65;;
53401;SDS011;39295;45.534;20.034;2023-03-01T13:12:43;36.00;;;25.33;;
53401;SDS011;39295;45.534;20.034;2023-03-01T13:17:57;33.72;;;24.75;;
53401;SDS011;39295;45.534;20.034;2023-03-01T13:28:40;39.47;;;28.70;;
53401;SDS011;39295;45.534;20.034;2023-03-01T13:34:38;37.63;;;27.75;;
53401;SDS011;39295;45.534;20.034;2023-03-01T13:37:08;35.15;;;26.05;;
53401;SDS011;39295;45.534;20.034;2023-03-01T13:39:38;39.92;;;27.98;;
53401;SDS011;39295;45.534;20.034;2023-03-01T13:44:49;39.03;;;27.02;;
53401;SDS011;39295;45.534;20.034;2023-03-01T13:47:16;42.50;;;29.10;;
53401;SDS011;39295;45.534;20.034;2023-03-01T13:49:47;45.45;;;30.75;;
53401;SDS011;39295;45.534;20.034;2023-03-01T13:54:55;37.63;;;27.83;;
53401;SDS011;39295;45.534;20.034;2023-03-01T13:57:32;41.03;;;28.75;;
53401;SDS011;39295;45.534;20.034;2023-03-01T13:59:59;38.30;;;27.35;;
53401;SDS011;39295;45.534;20.034;2023-03-01T14:02:25;44.90;;;29.75;;
53401;SDS011;39295;45.534;20.034;2023-03-01T14:04:58;44.20;;;29.83;;
53401;SDS011;39295;45.534;20.034;2023-03-01T14:07:25;50.08;;;32.90;;
53401;SDS011;39295;45.534;20.034;2023-03-01T14:09:58;52.00;;;34.90;;
53401;SDS011;39295;45.534;20.034;2023-03-01T14:15:10;39.88;;;27.88;;
53401;SDS011;39295;45.534;20.034;2023-03-01T14:20:20;41.28;;;28.25;;
53401;SDS011;39295;45.534;20.034;2023-03-01T14:22:47;42.78;;;29.13;;
53401;SDS011;39295;45.534;20.034;2023-03-01T14:25:24;41.55;;;28.08;;
53401;SDS011;39295;45.534;20.034;2023-03-01T14:27:54;50.22;;;30.23;;
53401;SDS011;39295;45.534;20.034;2023-03-01T14:30:24;50.13;;;32.22;;
53401;SDS011;39295;45.534;20.034;2023-03-01T14:32:55;45.15;;;31.20;;
53401;SDS011;39295;45.534;20.034;2023-03-01T14:35:22;47.50;;;31.88;;
53401;SDS011;39295;45.534;20.034;2023-03-01T14:37:48;50.40;;;33.95;;
53401;SDS011;39295;45.534;20.034;2023-03-01T14:40:47;40.13;;;29.38;;
53401;SDS011;39295;45.534;20.034;2023-03-01T14:43:10;41.42;;;28.98;;
53401;SDS011;39295;45.534;20.034;2023-03-01T14:45:37;37.80;;;26.95;;
53401;SDS011;39295;45.534;20.034;2023-03-01T14:48:04;41.00;;;27.88;;
53401;SDS011;39295;45.534;20.034;2023-03-01T14:50:32;38.17;;;28.35;;
53401;SDS011;39295;45.534;20.034;2023-03-01T14:52:59;48.95;;;32.83;;
53401;SDS011;39295;45.534;20.034;2023-03-01T14:55:34;41.15;;;28.27;;
53401;SDS011;39295;45.534;20.034;2023-03-01T14:58:05;40.20;;;26.98;;
53401;SDS011;39295;45.534;20.034;2023-03-01T15:00:32;38.55;;;28.00;;
53401;SDS011;39295;45.534;20.034;2023-03-01T15:03:11;38.95;;;28.02;;
53401;SDS011;39295;45.534;20.034;2023-03-01T15:05:39;39.08;;;27.63;;
53401;SDS011;39295;45.534;20.034;2023-03-01T15:08:05;36.45;;;27.85;;
53401;SDS011;39295;45.534;20.034;2023-03-01T15:10:32;40.97;;;27.20;;
53401;SDS011;39295;45.534;20.034;2023-03-01T15:13:19;86.25;;;37.88;;
53401;SDS011;39295;45.534;20.034;2023-03-01T15:15:47;80.82;;;38.85;;
53401;SDS011;39295;45.534;20.034;2023-03-01T15:20:40;72.90;;;40.88;;
53401;SDS011;39295;45.534;20.034;2023-03-01T15:23:12;79.88;;;41.55;;
53401;SDS011;39295;45.534;20.034;2023-03-01T15:25:44;92.80;;;46.17;;
53401;SDS011;39295;45.534;20.034;2023-03-01T15:28:12;52.38;;;33.70;;
53401;SDS011;39295;45.534;20.034;2023-03-01T15:30:43;53.30;;;36.13;;
53401;SDS011;39295;45.534;20.034;2023-03-01T15:33:16;53.55;;;36.40;;
53401;SDS011;39295;45.534;20.034;2023-03-01T15:35:47;44.90;;;32.53;;
53401;SDS011;39295;45.534;20.034;2023-03-01T15:38:24;50.08;;;33.65;;
53401;SDS011;39295;45.534;20.034;2023-03-01T15:40:51;50.05;;;33.92;;
53401;SDS011;39295;45.534;20.034;2023-03-01T15:46:01;47.90;;;32.33;;
53401;SDS011;39295;45.534;20.034;2023-03-01T15:48:27;44.33;;;31.70;;
53401;SDS011;39295;45.534;20.034;2023-03-01T15:50:54;42.38;;;31.52;;
53401;SDS011;39295;45.534;20.034;2023-03-01T15:53:20;45.20;;;31.38;;
53401;SDS011;39295;45.534;20.034;2023-03-01T15:55:46;41.70;;;30.90;;
53401;SDS011;39295;45.534;20.034;2023-03-01T15:58:16;46.53;;;31.60;;
53401;SDS011;39295;45.534;20.034;2023-03-01T16:00:43;42.30;;;30.45;;
53401;SDS011;39295;45.534;20.034;2023-03-01T16:03:12;40.58;;;29.67;;
53401;SDS011;39295;45.534;20.034;2023-03-01T16:05:38;47.22;;;31.88;;
53401;SDS011;39295;45.534;20.034;2023-03-01T16:08:05;45.00;;;31.80;;
53401;SDS011;39295;45.534;20.034;2023-03-01T16:10:32;50.03;;;35.75;;
53401;SDS011;39295;45.534;20.034;2023-03-01T16:12:58;63.65;;;43.88;;
53401;SDS011;39295;45.534;20.034;2023-03-01T16:15:31;69.22;;;46.13;;
53401;SDS011;39295;45.534;20.034;2023-03-01T16:17:59;61.67;;;44.10;;
53401;SDS011;39295;45.534;20.034;2023-03-01T16:20:25;66.70;;;43.35;;
53401;SDS011;39295;45.534;20.034;2023-03-01T16:22:51;58.13;;;38.03;;
53401;SDS011;39295;45.534;20.034;2023-03-01T16:25:18;48.08;;;32.67;;
53401;SDS011;39295;45.534;20.034;2023-03-01T16:27:45;48.35;;;32.60;;
53401;SDS011;39295;45.534;20.034;2023-03-01T16:30:13;61.30;;;38.95;;
53401;SDS011;39295;45.534;20.034;2023-03-01T16:32:40;70.18;;;45.53;;
53401;SDS011;39295;45.534;20.034;2023-03-01T16:35:07;75.25;;;48.15;;
53401;SDS011;39295;45.534;20.034;2023-03-01T16:37:34;76.90;;;46.25;;
53401;SDS011;39295;45.534;20.034;2023-03-01T16:40:00;79.80;;;46.33;;
53401;SDS011;39295;45.534;20.034;2023-03-01T16:42:26;79.60;;;49.30;;
53401;SDS011;39295;45.534;20.034;2023-03-01T16:44:55;83.05;;;53.15;;
53401;SDS011;39295;45.534;20.034;2023-03-01T16:47:22;94.38;;;55.67;;
53401;SDS011;39295;45.534;20.034;2023-03-01T16:49:51;96.80;;;57.17;;
53401;SDS011;39295;45.534;20.034;2023-03-01T16:52:17;93.28;;;58.33;;
53401;SDS011;39295;45.534;20.034;2023-03-01T16:54:43;99.13;;;56.38;;
53401;SDS011;39295;45.534;20.034;2023-03-01T16:57:09;97.20;;;56.88;;